sensor_id;sensor_type;location;lat;lon;timestamp;temperature;humidity
35325;DHT22;35135;47.510;19.036;2024-01-30T00:01:50;20.80;46.70
35325;DHT22;35135;47.510;19.036;2024-01-30T00:04:15;20.80;46.80
35325;DHT22;35135;47.510;19.036;2024-01-30T00:06:43;20.80;46.70
35325;DHT22;35135;47.510;19.036;2024-01-30T00:09:08;20.80;46.70
35325;DHT22;35135;47.510;19.036;2024-01-30T00:11:35;20.70;47.30
35325;DHT22;35135;47.510;19.036;2024-01-30T00:14:01;20.70;46.80
35325;DHT22;35135;47.510;19.036;2024-01-30T00:16:29;20.70;46.70
35325;DHT22;35135;47.510;19.036;2024-01-30T00:18:54;20.70;46.70
35325;DHT22;35135;47.510;19.036;2024-01-30T00:21:21;20.70;46.70
35325;DHT22;35135;47.510;19.036;2024-01-30T00:23:47;20.70;46.70
35325;DHT22;35135;47.510;19.036;2024-01-30T00:26:13;20.70;46.80
35325;DHT22;35135;47.510;19.036;2024-01-30T00:28:43;20.70;46.60
35325;DHT22;35135;47.510;19.036;2024-01-30T00:31:09;20.70;46.70
35325;DHT22;35135;47.510;19.036;2024-01-30T00:33:41;20.70;46.70
35325;DHT22;35135;47.510;19.036;2024-01-30T00:36:08;20.60;46.60
35325;DHT22;35135;47.510;19.036;2024-01-30T00:38:35;20.70;46.70
35325;DHT22;35135;47.510;19.036;2024-01-30T00:41:00;20.70;46.60
35325;DHT22;35135;47.510;19.036;2024-01-30T00:43:27;20.60;46.60
35325;DHT22;35135;47.510;19.036;2024-01-30T00:45:53;20.60;46.50
35325;DHT22;35135;47.510;19.036;2024-01-30T00:48:19;20.60;46.50
35325;DHT22;35135;47.510;19.036;2024-01-30T00:50:45;20.60;46.50
35325;DHT22;35135;47.510;19.036;2024-01-30T00:53:11;20.60;46.60
35325;DHT22;35135;47.510;19.036;2024-01-30T00:55:37;20.60;46.60
35325;DHT22;35135;47.510;19.036;2024-01-30T00:58:03;20.60;46.50
35325;DHT22;35135;47.510;19.036;2024-01-30T01:00:29;20.60;46.40
35325;DHT22;35135;47.510;19.036;2024-01-30T01:02:55;20.60;46.50
35325;DHT22;35135;47.510;19.036;2024-01-30T01:05:21;20.60;46.60
35325;DHT22;35135;47.510;19.036;2024-01-30T01:07:46;20.50;46.50
35325;DHT22;35135;47.510;19.036;2024-01-30T01:10:16;20.50;46.50
35325;DHT22;35135;47.510;19.036;2024-01-30T01:12:42;20.50;46.50
35325;DHT22;35135;47.510;19.036;2024-01-30T01:15:08;20.50;46.40
35325;DHT22;35135;47.510;19.036;2024-01-30T01:17:38;20.50;46.40
35325;DHT22;35135;47.510;19.036;2024-01-30T01:20:05;20.50;46.40
35325;DHT22;35135;47.510;19.036;2024-01-30T01:22:31;20.50;46.30
35325;DHT22;35135;47.510;19.036;2024-01-30T01:24:58;20.50;46.40
35325;DHT22;35135;47.510;19.036;2024-01-30T01:27:24;20.50;46.40
35325;DHT22;35135;47.510;19.036;2024-01-30T01:29:50;20.50;46.40
35325;DHT22;35135;47.510;19.036;2024-01-30T01:32:16;20.50;46.30
35325;DHT22;35135;47.510;19.036;2024-01-30T01:34:42;20.50;46.40
35325;DHT22;35135;47.510;19.036;2024-01-30T01:37:07;20.50;46.40
35325;DHT22;35135;47.510;19.036;2024-01-30T01:39:33;20.50;46.40
35325;DHT22;35135;47.510;19.036;2024-01-30T01:41:59;20.40;46.30
35325;DHT22;35135;47.510;19.036;2024-01-30T01:44:24;20.40;46.30
35325;DHT22;35135;47.510;19.036;2024-01-30T01:46:51;20.40;46.30
35325;DHT22;35135;47.510;19.036;2024-01-30T01:49:18;20.40;46.30
35325;DHT22;35135;47.510;19.036;2024-01-30T01:51:45;20.40;46.30
35325;DHT22;35135;47.510;19.036;2024-01-30T01:54:14;20.40;46.30
35325;DHT22;35135;47.510;19.036;2024-01-30T01:56:42;20.40;46.40
35325;DHT22;35135;47.510;19.036;2024-01-30T01:59:08;20.40;46.30
35325;DHT22;35135;47.510;19.036;2024-01-30T02:01:36;20.40;46.40
35325;DHT22;35135;47.510;19.036;2024-01-30T02:04:02;20.40;46.40
35325;DHT22;35135;47.510;19.036;2024-01-30T02:06:28;20.40;46.40
35325;DHT22;35135;47.510;19.036;2024-01-30T02:08:54;20.40;46.40
35325;DHT22;35135;47.510;19.036;2024-01-30T02:11:20;20.40;46.40
35325;DHT22;35135;47.510;19.036;2024-01-30T02:13:46;20.40;46.30
35325;DHT22;35135;47.510;19.036;2024-01-30T02:16:12;20.30;46.30
35325;DHT22;35135;47.510;19.036;2024-01-30T02:18:37;20.30;46.20
35325;DHT22;35135;47.510;19.036;2024-01-30T02:21:07;20.40;46.40
35325;DHT22;35135;47.510;19.036;2024-01-30T02:23:34;20.30;46.20
35325;DHT22;35135;47.510;19.036;2024-01-30T02:26:00;20.30;46.20
35325;DHT22;35135;47.510;19.036;2024-01-30T02:28:26;20.30;46.20
35325;DHT22;35135;47.510;19.036;2024-01-30T02:30:53;20.30;46.20
35325;DHT22;35135;47.510;19.036;2024-01-30T02:33:19;20.30;46.20
35325;DHT22;35135;47.510;19.036;2024-01-30T02:35:44;20.30;46.20
35325;DHT22;35135;47.510;19.036;2024-01-30T02:38:10;20.30;46.10
35325;DHT22;35135;47.510;19.036;2024-01-30T02:40:36;20.30;46.20
35325;DHT22;35135;47.510;19.036;2024-01-30T02:43:02;20.30;46.20
35325;DHT22;35135;47.510;19.036;2024-01-30T02:45:28;20.30;46.20
35325;DHT22;35135;47.510;19.036;2024-01-30T02:47:54;20.20;46.10
35325;DHT22;35135;47.510;19.036;2024-01-30T02:50:20;20.20;46.20
35325;DHT22;35135;47.510;19.036;2024-01-30T02:52:45;20.20;46.10
35325;DHT22;35135;47.510;19.036;2024-01-30T02:55:12;20.30;46.20
35325;DHT22;35135;47.510;19.036;2024-01-30T02:57:38;20.20;46.10
35325;DHT22;35135;47.510;19.036;2024-01-30T03:00:05;20.20;45.90
35325;DHT22;35135;47.510;19.036;2024-01-30T03:02:32;20.20;46.00
35325;DHT22;35135;47.510;19.036;2024-01-30T03:04:58;20.20;46.10
35325;DHT22;35135;47.510;19.036;2024-01-30T03:07:23;20.20;46.10
35325;DHT22;35135;47.510;19.036;2024-01-30T03:09:49;20.20;46.10
35325;DHT22;35135;47.510;19.036;2024-01-30T03:12:15;20.20;46.00
35325;DHT22;35135;47.510;19.036;2024-01-30T03:14:40;20.20;46.10
35325;DHT22;35135;47.510;19.036;2024-01-30T03:17:06;20.20;46.10
35325;DHT22;35135;47.510;19.036;2024-01-30T03:19:32;20.20;46.10
35325;DHT22;35135;47.510;19.036;2024-01-30T03:21:57;20.20;46.10
35325;DHT22;35135;47.510;19.036;2024-01-30T03:24:23;20.20;46.30
35325;DHT22;35135;47.510;19.036;2024-01-30T03:26:49;20.20;46.10
35325;DHT22;35135;47.510;19.036;2024-01-30T03:29:14;20.20;46.00
35325;DHT22;35135;47.510;19.036;2024-01-30T03:31:41;20.20;46.00
35325;DHT22;35135;47.510;19.036;2024-01-30T03:34:06;20.20;46.00
35325;DHT22;35135;47.510;19.036;2024-01-30T03:36:32;20.20;46.00
35325;DHT22;35135;47.510;19.036;2024-01-30T03:39:00;20.20;46.00
35325;DHT22;35135;47.510;19.036;2024-01-30T03:41:25;20.10;46.00
35325;DHT22;35135;47.510;19.036;2024-01-30T03:43:51;20.10;45.90
35325;DHT22;35135;47.510;19.036;2024-01-30T03:46:17;20.10;45.90
35325;DHT22;35135;47.510;19.036;2024-01-30T03:48:42;20.10;45.90
35325;DHT22;35135;47.510;19.036;2024-01-30T03:51:09;20.10;45.90
35325;DHT22;35135;47.510;19.036;2024-01-30T03:53:40;20.10;45.90
35325;DHT22;35135;47.510;19.036;2024-01-30T03:56:05;20.10;45.90
35325;DHT22;35135;47.510;19.036;2024-01-30T03:58:31;20.10;45.90
35325;DHT22;35135;47.510;19.036;2024-01-30T04:00:57;20.10;45.80
35325;DHT22;35135;47.510;19.036;2024-01-30T04:03:22;20.10;45.90
35325;DHT22;35135;47.510;19.036;2024-01-30T04:05:48;20.10;45.80
35325;DHT22;35135;47.510;19.036;2024-01-30T04:08:14;20.10;45.80
35325;DHT22;35135;47.510;19.036;2024-01-30T04:10:40;20.00;45.70
35325;DHT22;35135;47.510;19.036;2024-01-30T04:13:06;20.10;45.70
35325;DHT22;35135;47.510;19.036;2024-01-30T04:15:31;20.10;45.80
35325;DHT22;35135;47.510;19.036;2024-01-30T04:17:58;20.00;45.70
35325;DHT22;35135;47.510;19.036;2024-01-30T04:20:27;20.10;45.80
35325;DHT22;35135;47.510;19.036;2024-01-30T04:22:52;20.00;45.70
35325;DHT22;35135;47.510;19.036;2024-01-30T04:25:18;20.00;45.70
35325;DHT22;35135;47.510;19.036;2024-01-30T04:27:44;20.00;45.60
35325;DHT22;35135;47.510;19.036;2024-01-30T04:30:10;20.10;45.70
35325;DHT22;35135;47.510;19.036;2024-01-30T04:32:36;20.10;45.70
35325;DHT22;35135;47.510;19.036;2024-01-30T04:35:02;20.20;45.70
35325;DHT22;35135;47.510;19.036;2024-01-30T04:37:28;20.30;45.70
35325;DHT22;35135;47.510;19.036;2024-01-30T04:39:54;20.40;45.50
35325;DHT22;35135;47.510;19.036;2024-01-30T04:42:20;20.50;45.40
35325;DHT22;35135;47.510;19.036;2024-01-30T04:44:45;20.60;45.10
35325;DHT22;35135;47.510;19.036;2024-01-30T04:47:11;20.80;44.90
35325;DHT22;35135;47.510;19.036;2024-01-30T04:49:40;20.90;44.80
35325;DHT22;35135;47.510;19.036;2024-01-30T04:52:07;20.90;44.50
35325;DHT22;35135;47.510;19.036;2024-01-30T04:54:33;21.00;44.50
35325;DHT22;35135;47.510;19.036;2024-01-30T04:56:58;21.10;44.40
35325;DHT22;35135;47.510;19.036;2024-01-30T04:59:24;21.10;44.30
35325;DHT22;35135;47.510;19.036;2024-01-30T05:01:50;21.10;44.20
35325;DHT22;35135;47.510;19.036;2024-01-30T05:04:16;21.20;44.10
35325;DHT22;35135;47.510;19.036;2024-01-30T05:06:42;21.20;44.00
35325;DHT22;35135;47.510;19.036;2024-01-30T05:09:08;21.10;43.90
35325;DHT22;35135;47.510;19.036;2024-01-30T05:11:41;21.20;43.90
35325;DHT22;35135;47.510;19.036;2024-01-30T05:14:07;21.10;43.70
35325;DHT22;35135;47.510;19.036;2024-01-30T05:16:34;21.10;43.80
35325;DHT22;35135;47.510;19.036;2024-01-30T05:18:59;21.10;43.80
35325;DHT22;35135;47.510;19.036;2024-01-30T05:21:25;21.10;43.80
35325;DHT22;35135;47.510;19.036;2024-01-30T05:23:51;21.10;43.90
35325;DHT22;35135;47.510;19.036;2024-01-30T05:26:17;21.00;43.90
35325;DHT22;35135;47.510;19.036;2024-01-30T05:28:43;21.00;43.90
35325;DHT22;35135;47.510;19.036;2024-01-30T05:31:10;21.00;43.90
35325;DHT22;35135;47.510;19.036;2024-01-30T05:33:36;21.00;43.90
35325;DHT22;35135;47.510;19.036;2024-01-30T05:36:02;20.90;43.80
35325;DHT22;35135;47.510;19.036;2024-01-30T05:38:28;21.00;43.90
35325;DHT22;35135;47.510;19.036;2024-01-30T05:40:53;20.90;43.80
35325;DHT22;35135;47.510;19.036;2024-01-30T05:43:19;20.90;43.90
35325;DHT22;35135;47.510;19.036;2024-01-30T05:45:45;20.90;43.60
35325;DHT22;35135;47.510;19.036;2024-01-30T05:48:10;20.80;43.60
35325;DHT22;35135;47.510;19.036;2024-01-30T05:50:36;20.90;43.60
35325;DHT22;35135;47.510;19.036;2024-01-30T05:53:02;20.90;44.40
35325;DHT22;35135;47.510;19.036;2024-01-30T05:55:27;20.80;43.60
35325;DHT22;35135;47.510;19.036;2024-01-30T05:57:53;20.80;43.70
35325;DHT22;35135;47.510;19.036;2024-01-30T06:00:19;20.80;43.60
35325;DHT22;35135;47.510;19.036;2024-01-30T06:02:44;20.80;43.90
35325;DHT22;35135;47.510;19.036;2024-01-30T06:05:10;20.80;44.10
35325;DHT22;35135;47.510;19.036;2024-01-30T06:07:36;20.70;44.00
35325;DHT22;35135;47.510;19.036;2024-01-30T06:10:02;20.70;44.10
35325;DHT22;35135;47.510;19.036;2024-01-30T06:12:28;20.70;44.00
35325;DHT22;35135;47.510;19.036;2024-01-30T06:14:54;20.70;44.10
35325;DHT22;35135;47.510;19.036;2024-01-30T06:17:22;20.70;44.10
35325;DHT22;35135;47.510;19.036;2024-01-30T06:19:48;20.70;44.20
35325;DHT22;35135;47.510;19.036;2024-01-30T06:22:15;20.70;44.20
35325;DHT22;35135;47.510;19.036;2024-01-30T06:24:41;20.60;44.30
35325;DHT22;35135;47.510;19.036;2024-01-30T06:27:07;20.60;44.50
35325;DHT22;35135;47.510;19.036;2024-01-30T06:29:32;20.60;44.50
35325;DHT22;35135;47.510;19.036;2024-01-30T06:31:59;20.60;44.50
35325;DHT22;35135;47.510;19.036;2024-01-30T06:34:24;20.60;44.50
35325;DHT22;35135;47.510;19.036;2024-01-30T06:36:51;20.60;44.60
35325;DHT22;35135;47.510;19.036;2024-01-30T06:39:17;20.60;44.60
35325;DHT22;35135;47.510;19.036;2024-01-30T06:41:43;20.60;44.50
35325;DHT22;35135;47.510;19.036;2024-01-30T06:44:09;20.60;44.60
35325;DHT22;35135;47.510;19.036;2024-01-30T06:46:35;20.60;44.60
35325;DHT22;35135;47.510;19.036;2024-01-30T06:49:02;20.60;44.50
35325;DHT22;35135;47.510;19.036;2024-01-30T06:51:28;20.60;44.50
35325;DHT22;35135;47.510;19.036;2024-01-30T06:53:53;20.60;44.40
35325;DHT22;35135;47.510;19.036;2024-01-30T06:56:19;20.50;44.40
35325;DHT22;35135;47.510;19.036;2024-01-30T06:58:52;20.50;44.30
35325;DHT22;35135;47.510;19.036;2024-01-30T07:01:18;20.50;44.20
35325;DHT22;35135;47.510;19.036;2024-01-30T07:03:43;20.50;44.20
35325;DHT22;35135;47.510;19.036;2024-01-30T07:06:09;20.50;44.30
35325;DHT22;35135;47.510;19.036;2024-01-30T07:08:36;20.50;44.20
35325;DHT22;35135;47.510;19.036;2024-01-30T07:11:05;20.50;44.20
35325;DHT22;35135;47.510;19.036;2024-01-30T07:13:31;20.40;44.10
35325;DHT22;35135;47.510;19.036;2024-01-30T07:15:57;20.40;44.10
35325;DHT22;35135;47.510;19.036;2024-01-30T07:18:23;20.50;44.20
35325;DHT22;35135;47.510;19.036;2024-01-30T07:20:48;20.40;44.10
35325;DHT22;35135;47.510;19.036;2024-01-30T07:23:16;20.40;44.10
35325;DHT22;35135;47.510;19.036;2024-01-30T07:25:46;20.40;44.10
35325;DHT22;35135;47.510;19.036;2024-01-30T07:28:14;20.40;44.10
35325;DHT22;35135;47.510;19.036;2024-01-30T07:30:43;20.40;44.10
35325;DHT22;35135;47.510;19.036;2024-01-30T07:33:09;20.40;44.10
35325;DHT22;35135;47.510;19.036;2024-01-30T07:35:35;20.40;44.10
35325;DHT22;35135;47.510;19.036;2024-01-30T07:38:01;20.40;44.10
35325;DHT22;35135;47.510;19.036;2024-01-30T07:40:27;20.40;44.00
35325;DHT22;35135;47.510;19.036;2024-01-30T07:42:55;20.40;44.10
35325;DHT22;35135;47.510;19.036;2024-01-30T07:45:21;20.40;43.90
35325;DHT22;35135;47.510;19.036;2024-01-30T07:47:51;20.50;43.90
35325;DHT22;35135;47.510;19.036;2024-01-30T07:50:17;20.50;43.80
35325;DHT22;35135;47.510;19.036;2024-01-30T07:52:43;20.50;43.70
35325;DHT22;35135;47.510;19.036;2024-01-30T07:55:08;20.50;43.70
35325;DHT22;35135;47.510;19.036;2024-01-30T07:57:34;20.50;43.70
35325;DHT22;35135;47.510;19.036;2024-01-30T08:00:01;20.50;43.60
35325;DHT22;35135;47.510;19.036;2024-01-30T08:02:26;20.50;43.60
35325;DHT22;35135;47.510;19.036;2024-01-30T08:04:52;20.50;43.60
35325;DHT22;35135;47.510;19.036;2024-01-30T08:07:18;20.50;43.60
35325;DHT22;35135;47.510;19.036;2024-01-30T08:09:44;20.50;43.60
35325;DHT22;35135;47.510;19.036;2024-01-30T08:12:09;20.50;43.60
35325;DHT22;35135;47.510;19.036;2024-01-30T08:14:35;20.50;43.50
35325;DHT22;35135;47.510;19.036;2024-01-30T08:17:01;20.50;43.50
35325;DHT22;35135;47.510;19.036;2024-01-30T08:19:26;20.50;43.50
35325;DHT22;35135;47.510;19.036;2024-01-30T08:21:52;20.50;43.60
35325;DHT22;35135;47.510;19.036;2024-01-30T08:24:18;20.50;43.50
35325;DHT22;35135;47.510;19.036;2024-01-30T08:26:43;20.50;43.50
35325;DHT22;35135;47.510;19.036;2024-01-30T08:29:09;20.50;43.50
35325;DHT22;35135;47.510;19.036;2024-01-30T08:31:35;20.40;43.50
35325;DHT22;35135;47.510;19.036;2024-01-30T08:34:00;20.40;43.50
35325;DHT22;35135;47.510;19.036;2024-01-30T08:36:26;20.40;43.50
35325;DHT22;35135;47.510;19.036;2024-01-30T08:38:52;20.40;43.50
35325;DHT22;35135;47.510;19.036;2024-01-30T08:41:17;20.40;43.50
35325;DHT22;35135;47.510;19.036;2024-01-30T08:43:43;20.40;43.50
35325;DHT22;35135;47.510;19.036;2024-01-30T08:46:10;20.40;43.50
35325;DHT22;35135;47.510;19.036;2024-01-30T08:48:36;20.40;43.50
35325;DHT22;35135;47.510;19.036;2024-01-30T08:51:02;20.40;43.50
35325;DHT22;35135;47.510;19.036;2024-01-30T08:53:27;20.40;43.50
35325;DHT22;35135;47.510;19.036;2024-01-30T08:55:53;20.40;43.50
35325;DHT22;35135;47.510;19.036;2024-01-30T08:58:18;20.40;43.50
35325;DHT22;35135;47.510;19.036;2024-01-30T09:00:44;20.40;43.50
35325;DHT22;35135;47.510;19.036;2024-01-30T09:03:10;20.40;43.50
35325;DHT22;35135;47.510;19.036;2024-01-30T09:05:36;20.40;43.50
35325;DHT22;35135;47.510;19.036;2024-01-30T09:08:01;20.40;43.50
35325;DHT22;35135;47.510;19.036;2024-01-30T09:10:27;20.40;43.50
35325;DHT22;35135;47.510;19.036;2024-01-30T09:12:54;20.40;43.50
35325;DHT22;35135;47.510;19.036;2024-01-30T09:15:20;20.40;43.50
35325;DHT22;35135;47.510;19.036;2024-01-30T09:17:45;20.40;43.50
35325;DHT22;35135;47.510;19.036;2024-01-30T09:20:11;20.40;43.40
35325;DHT22;35135;47.510;19.036;2024-01-30T09:22:37;20.40;43.40
35325;DHT22;35135;47.510;19.036;2024-01-30T09:25:03;20.30;43.90
35325;DHT22;35135;47.510;19.036;2024-01-30T09:27:29;20.30;44.00
35325;DHT22;35135;47.510;19.036;2024-01-30T09:29:54;20.40;43.40
35325;DHT22;35135;47.510;19.036;2024-01-30T09:32:20;20.40;43.40
35325;DHT22;35135;47.510;19.036;2024-01-30T09:34:46;20.40;43.40
35325;DHT22;35135;47.510;19.036;2024-01-30T09:37:11;20.30;43.30
35325;DHT22;35135;47.510;19.036;2024-01-30T09:39:37;20.40;43.30
35325;DHT22;35135;47.510;19.036;2024-01-30T09:44:57;20.30;43.30
35325;DHT22;35135;47.510;19.036;2024-01-30T09:47:23;20.30;43.30
35325;DHT22;35135;47.510;19.036;2024-01-30T09:49:50;20.30;43.20
35325;DHT22;35135;47.510;19.036;2024-01-30T09:52:16;20.30;43.30
35325;DHT22;35135;47.510;19.036;2024-01-30T09:54:42;20.30;43.30
35325;DHT22;35135;47.510;19.036;2024-01-30T09:57:09;20.30;43.20
35325;DHT22;35135;47.510;19.036;2024-01-30T09:59:35;20.30;43.20
35325;DHT22;35135;47.510;19.036;2024-01-30T10:02:00;20.30;43.20
35325;DHT22;35135;47.510;19.036;2024-01-30T10:04:26;20.30;43.20
35325;DHT22;35135;47.510;19.036;2024-01-30T10:06:52;20.30;43.20
35325;DHT22;35135;47.510;19.036;2024-01-30T10:09:17;20.30;43.20
35325;DHT22;35135;47.510;19.036;2024-01-30T10:11:43;20.30;43.20
35325;DHT22;35135;47.510;19.036;2024-01-30T10:14:09;20.30;43.20
35325;DHT22;35135;47.510;19.036;2024-01-30T10:16:35;20.40;43.20
35325;DHT22;35135;47.510;19.036;2024-01-30T10:19:01;20.30;43.10
35325;DHT22;35135;47.510;19.036;2024-01-30T10:21:26;20.30;43.10
35325;DHT22;35135;47.510;19.036;2024-01-30T10:24:11;20.30;43.10
35325;DHT22;35135;47.510;19.036;2024-01-30T10:26:39;20.40;43.20
35325;DHT22;35135;47.510;19.036;2024-01-30T10:29:05;20.30;43.10
35325;DHT22;35135;47.510;19.036;2024-01-30T10:31:31;20.30;43.10
35325;DHT22;35135;47.510;19.036;2024-01-30T10:33:56;20.30;43.10
35325;DHT22;35135;47.510;19.036;2024-01-30T10:36:28;20.30;43.10
35325;DHT22;35135;47.510;19.036;2024-01-30T10:38:55;20.30;43.10
35325;DHT22;35135;47.510;19.036;2024-01-30T10:41:26;20.30;43.20
35325;DHT22;35135;47.510;19.036;2024-01-30T10:44:08;20.30;43.10
35325;DHT22;35135;47.510;19.036;2024-01-30T10:46:35;20.30;43.10
35325;DHT22;35135;47.510;19.036;2024-01-30T10:49:04;20.30;43.10
35325;DHT22;35135;47.510;19.036;2024-01-30T10:51:31;20.30;43.10
35325;DHT22;35135;47.510;19.036;2024-01-30T10:53:58;20.20;43.20
35325;DHT22;35135;47.510;19.036;2024-01-30T10:56:24;20.20;43.20
35325;DHT22;35135;47.510;19.036;2024-01-30T10:58:51;20.20;43.20
35325;DHT22;35135;47.510;19.036;2024-01-30T11:01:22;20.20;43.20
35325;DHT22;35135;47.510;19.036;2024-01-30T11:03:54;20.20;43.10
35325;DHT22;35135;47.510;19.036;2024-01-30T11:06:24;20.20;43.20
35325;DHT22;35135;47.510;19.036;2024-01-30T11:09:04;20.20;43.20
35325;DHT22;35135;47.510;19.036;2024-01-30T11:11:48;20.20;43.10
35325;DHT22;35135;47.510;19.036;2024-01-30T11:14:14;20.20;43.20
35325;DHT22;35135;47.510;19.036;2024-01-30T11:16:40;20.20;43.20
35325;DHT22;35135;47.510;19.036;2024-01-30T11:19:10;20.20;43.20
35325;DHT22;35135;47.510;19.036;2024-01-30T11:21:42;20.20;43.20
35325;DHT22;35135;47.510;19.036;2024-01-30T11:24:09;20.20;43.20
35325;DHT22;35135;47.510;19.036;2024-01-30T11:26:35;20.20;43.20
35325;DHT22;35135;47.510;19.036;2024-01-30T11:29:03;20.20;43.20
35325;DHT22;35135;47.510;19.036;2024-01-30T11:31:32;20.20;43.20
35325;DHT22;35135;47.510;19.036;2024-01-30T11:33:58;20.20;43.20
35325;DHT22;35135;47.510;19.036;2024-01-30T11:36:26;20.20;43.20
35325;DHT22;35135;47.510;19.036;2024-01-30T11:38:54;20.20;43.20
35325;DHT22;35135;47.510;19.036;2024-01-30T11:41:20;20.20;43.20
35325;DHT22;35135;47.510;19.036;2024-01-30T11:43:56;20.20;43.20
35325;DHT22;35135;47.510;19.036;2024-01-30T11:46:25;20.20;43.10
35325;DHT22;35135;47.510;19.036;2024-01-30T11:48:50;20.20;43.20
35325;DHT22;35135;47.510;19.036;2024-01-30T11:51:17;20.20;43.20
35325;DHT22;35135;47.510;19.036;2024-01-30T11:53:49;20.20;43.20
35325;DHT22;35135;47.510;19.036;2024-01-30T11:56:15;20.20;43.20
35325;DHT22;35135;47.510;19.036;2024-01-30T11:58:44;20.20;43.10
35325;DHT22;35135;47.510;19.036;2024-01-30T12:01:11;20.20;43.10
35325;DHT22;35135;47.510;19.036;2024-01-30T12:03:37;20.20;43.10
35325;DHT22;35135;47.510;19.036;2024-01-30T12:06:03;20.20;43.10
35325;DHT22;35135;47.510;19.036;2024-01-30T12:08:28;20.20;43.10
35325;DHT22;35135;47.510;19.036;2024-01-30T12:10:57;20.20;43.10
35325;DHT22;35135;47.510;19.036;2024-01-30T12:13:31;20.20;43.00
35325;DHT22;35135;47.510;19.036;2024-01-30T12:15:56;20.20;43.10
35325;DHT22;35135;47.510;19.036;2024-01-30T12:18:22;20.20;43.10
35325;DHT22;35135;47.510;19.036;2024-01-30T12:21:00;20.20;43.10
35325;DHT22;35135;47.510;19.036;2024-01-30T12:23:29;20.20;43.10
35325;DHT22;35135;47.510;19.036;2024-01-30T12:25:55;20.20;43.10
35325;DHT22;35135;47.510;19.036;2024-01-30T12:28:20;20.20;43.00
35325;DHT22;35135;47.510;19.036;2024-01-30T12:30:47;20.20;43.00
35325;DHT22;35135;47.510;19.036;2024-01-30T12:33:18;20.20;43.10
35325;DHT22;35135;47.510;19.036;2024-01-30T12:35:47;20.20;43.00
35325;DHT22;35135;47.510;19.036;2024-01-30T12:38:14;20.20;43.00
35325;DHT22;35135;47.510;19.036;2024-01-30T12:40:40;20.20;43.00
35325;DHT22;35135;47.510;19.036;2024-01-30T12:43:06;20.20;43.00
35325;DHT22;35135;47.510;19.036;2024-01-30T12:45:32;20.20;43.00
35325;DHT22;35135;47.510;19.036;2024-01-30T12:47:57;20.20;43.00
35325;DHT22;35135;47.510;19.036;2024-01-30T12:50:24;20.20;43.00
35325;DHT22;35135;47.510;19.036;2024-01-30T12:52:49;20.20;43.00
35325;DHT22;35135;47.510;19.036;2024-01-30T12:55:15;20.20;43.10
35325;DHT22;35135;47.510;19.036;2024-01-30T12:57:41;20.20;43.10
35325;DHT22;35135;47.510;19.036;2024-01-30T13:00:07;20.20;43.20
35325;DHT22;35135;47.510;19.036;2024-01-30T13:02:34;20.20;43.20
35325;DHT22;35135;47.510;19.036;2024-01-30T13:05:03;20.20;43.30
35325;DHT22;35135;47.510;19.036;2024-01-30T13:07:29;20.30;43.30
35325;DHT22;35135;47.510;19.036;2024-01-30T13:09:56;20.30;43.50
35325;DHT22;35135;47.510;19.036;2024-01-30T13:12:27;20.30;43.40
35325;DHT22;35135;47.510;19.036;2024-01-30T13:14:53;20.30;43.30
35325;DHT22;35135;47.510;19.036;2024-01-30T13:17:19;20.30;43.40
35325;DHT22;35135;47.510;19.036;2024-01-30T13:19:45;20.30;43.40
35325;DHT22;35135;47.510;19.036;2024-01-30T13:22:10;20.30;43.40
35325;DHT22;35135;47.510;19.036;2024-01-30T13:24:36;20.30;43.30
35325;DHT22;35135;47.510;19.036;2024-01-30T13:27:02;20.30;43.30
35325;DHT22;35135;47.510;19.036;2024-01-30T13:29:31;20.30;43.50
35325;DHT22;35135;47.510;19.036;2024-01-30T13:31:56;20.30;43.40
35325;DHT22;35135;47.510;19.036;2024-01-30T13:34:22;20.30;43.40
35325;DHT22;35135;47.510;19.036;2024-01-30T13:36:48;20.30;43.40
35325;DHT22;35135;47.510;19.036;2024-01-30T13:39:14;20.30;43.40
35325;DHT22;35135;47.510;19.036;2024-01-30T13:41:43;20.30;43.50
35325;DHT22;35135;47.510;19.036;2024-01-30T13:44:09;20.30;43.40
35325;DHT22;35135;47.510;19.036;2024-01-30T13:46:35;20.30;43.40
35325;DHT22;35135;47.510;19.036;2024-01-30T13:49:01;20.30;43.40
35325;DHT22;35135;47.510;19.036;2024-01-30T13:51:28;20.20;43.30
35325;DHT22;35135;47.510;19.036;2024-01-30T13:53:54;20.30;43.30
35325;DHT22;35135;47.510;19.036;2024-01-30T13:56:20;20.30;43.30
35325;DHT22;35135;47.510;19.036;2024-01-30T13:58:48;20.30;43.30
35325;DHT22;35135;47.510;19.036;2024-01-30T14:01:14;20.20;43.20
35325;DHT22;35135;47.510;19.036;2024-01-30T14:03:40;20.20;43.20
35325;DHT22;35135;47.510;19.036;2024-01-30T14:06:06;20.20;43.20
35325;DHT22;35135;47.510;19.036;2024-01-30T14:08:32;20.20;43.20
35325;DHT22;35135;47.510;19.036;2024-01-30T14:10:58;20.20;43.20
35325;DHT22;35135;47.510;19.036;2024-01-30T14:13:23;20.20;43.20
35325;DHT22;35135;47.510;19.036;2024-01-30T14:15:51;20.20;43.20
35325;DHT22;35135;47.510;19.036;2024-01-30T14:18:17;20.20;43.10
35325;DHT22;35135;47.510;19.036;2024-01-30T14:20:43;20.20;43.10
35325;DHT22;35135;47.510;19.036;2024-01-30T14:23:08;20.20;43.10
35325;DHT22;35135;47.510;19.036;2024-01-30T14:25:34;20.20;43.10
35325;DHT22;35135;47.510;19.036;2024-01-30T14:28:00;20.20;43.20
35325;DHT22;35135;47.510;19.036;2024-01-30T14:30:26;20.20;43.20
35325;DHT22;35135;47.510;19.036;2024-01-30T14:32:51;20.20;43.20
35325;DHT22;35135;47.510;19.036;2024-01-30T14:35:17;20.20;43.30
35325;DHT22;35135;47.510;19.036;2024-01-30T14:37:44;20.20;43.40
35325;DHT22;35135;47.510;19.036;2024-01-30T14:40:10;20.30;43.50
35325;DHT22;35135;47.510;19.036;2024-01-30T14:42:36;20.30;43.50
35325;DHT22;35135;47.510;19.036;2024-01-30T14:45:03;20.30;43.60
35325;DHT22;35135;47.510;19.036;2024-01-30T14:47:29;20.30;43.70
35325;DHT22;35135;47.510;19.036;2024-01-30T14:49:57;20.40;43.70
35325;DHT22;35135;47.510;19.036;2024-01-30T14:52:22;20.60;43.60
35325;DHT22;35135;47.510;19.036;2024-01-30T14:54:48;20.70;43.40
35325;DHT22;35135;47.510;19.036;2024-01-30T14:57:14;20.80;43.20
35325;DHT22;35135;47.510;19.036;2024-01-30T14:59:40;20.90;42.90
35325;DHT22;35135;47.510;19.036;2024-01-30T15:02:06;21.00;42.70
35325;DHT22;35135;47.510;19.036;2024-01-30T15:04:33;21.10;42.60
35325;DHT22;35135;47.510;19.036;2024-01-30T15:07:01;21.10;42.40
35325;DHT22;35135;47.510;19.036;2024-01-30T15:09:28;21.20;42.40
35325;DHT22;35135;47.510;19.036;2024-01-30T15:11:54;21.20;42.30
35325;DHT22;35135;47.510;19.036;2024-01-30T15:14:19;21.30;42.20